createdAt,value
2019-02-22T00:05:01.967Z,55.30
2019-02-22T00:10:08.697Z,57.57
2019-02-22T00:15:13.931Z,55.20
2019-02-22T00:20:19.797Z,57.73
2019-02-22T00:25:26.597Z,57.03
2019-02-22T00:30:32.589Z,59.18
2019-02-22T00:35:37.811Z,56.00
2019-02-22T00:40:43.483Z,61.87
2019-02-22T00:45:49.276Z,61.10
2019-02-22T00:50:54.362Z,60.28
2019-02-22T00:56:00.609Z,58.23
2019-02-22T01:01:07.510Z,57.15
2019-02-22T01:06:13.064Z,60.35
2019-02-22T01:11:18.349Z,62.15
2019-02-22T01:16:23.601Z,61.45
2019-02-22T01:21:28.762Z,60.67
2019-02-22T01:26:34.625Z,60.25
2019-02-22T01:31:39.787Z,65.00
2019-02-22T01:36:46.027Z,67.30
2019-02-22T01:41:51.659Z,68.72
2019-02-22T01:46:56.818Z,68.97
2019-02-22T01:52:02.052Z,68.57
2019-02-22T01:57:07.288Z,73.70
2019-02-22T02:02:12.534Z,78.25
2019-02-22T02:07:18.165Z,76.80
2019-02-22T02:12:23.582Z,75.23
2019-02-22T02:17:29.011Z,84.03
2019-02-22T02:22:34.512Z,77.75
2019-02-22T02:27:39.670Z,82.83
2019-02-22T02:32:45.728Z,84.90
2019-02-22T02:37:51.269Z,80.83
2019-02-22T02:42:56.708Z,75.05
2019-02-22T02:48:02.286Z,81.35
2019-02-22T02:53:07.527Z,81.12
2019-02-22T02:58:12.895Z,78.05
2019-02-22T03:03:18.046Z,74.62
2019-02-22T03:08:25.261Z,68.57
2019-02-22T03:13:30.855Z,67.50
2019-02-22T03:18:36.256Z,65.50
2019-02-22T03:23:41.507Z,64.97
2019-02-22T03:28:47.615Z,62.33
2019-02-22T03:33:52.709Z,58.73
2019-02-22T03:38:58.300Z,54.83
2019-02-22T03:44:03.860Z,49.10
2019-02-22T03:49:09.052Z,48.73
2019-02-22T03:54:14.322Z,51.07
2019-02-22T03:59:19.602Z,50.05
2019-02-22T04:04:24.902Z,47.40
2019-02-22T04:09:30.507Z,45.90
2019-02-22T04:14:36.122Z,45.10
2019-02-22T04:19:41.426Z,45.92
2019-02-22T04:24:46.690Z,49.80
2019-02-22T04:29:52.189Z,44.17
2019-02-22T04:34:58.280Z,46.18
2019-02-22T04:40:03.587Z,45.98
2019-02-22T04:45:08.894Z,47.85
2019-02-22T04:50:14.137Z,51.70
2019-02-22T04:55:19.916Z,41.05
2019-02-22T05:00:26.907Z,34.67
2019-02-22T05:05:33.398Z,42.90
2019-02-22T05:10:38.910Z,42.50
2019-02-22T05:15:44.415Z,41.17
2019-02-22T05:20:51.170Z,36.48
2019-02-22T05:25:56.456Z,45.63
2019-02-22T05:31:02.030Z,41.92
2019-02-22T05:36:07.543Z,42.47
2019-02-22T05:41:12.824Z,39.50
2019-02-22T05:46:18.108Z,35.60
2019-02-22T05:51:23.385Z,36.75
2019-02-22T05:56:28.640Z,33.98
2019-02-22T06:01:33.910Z,32.03
2019-02-22T06:06:39.081Z,31.20
2019-02-22T06:11:45.173Z,26.65
2019-02-22T06:16:50.745Z,31.53
2019-02-22T06:21:55.896Z,32.03
2019-02-22T06:27:01.489Z,32.23
2019-02-22T06:32:06.975Z,35.93
2019-02-22T06:37:12.166Z,32.13
2019-02-22T06:42:18.784Z,34.77
2019-02-22T06:47:24.288Z,34.53
2019-02-22T06:52:29.878Z,32.42
2019-02-22T06:57:35.178Z,29.90
2019-02-22T07:02:40.457Z,30.00
2019-02-22T07:07:45.905Z,30.20
2019-02-22T07:13:01.237Z,28.15
2019-02-22T07:18:06.655Z,24.95
2019-02-22T07:23:11.834Z,32.17
2019-02-22T07:28:17.328Z,27.47
2019-02-22T07:33:23.282Z,25.57
2019-02-22T07:38:29.507Z,27.03
2019-02-22T07:43:34.717Z,27.83
2019-02-22T07:48:40.165Z,31.17
2019-02-22T07:53:45.433Z,30.50
2019-02-22T07:58:50.619Z,28.87
2019-02-22T08:03:57.087Z,24.57
2019-02-22T08:09:02.631Z,25.17
2019-02-22T08:14:09.612Z,23.63
2019-02-22T08:19:15.195Z,22.47
2019-02-22T08:24:20.763Z,24.70
2019-02-22T08:29:26.025Z,24.65
2019-02-22T08:34:31.281Z,20.57
2019-02-22T08:39:36.977Z,21.33
2019-02-22T08:44:42.183Z,22.47
2019-02-22T08:49:47.492Z,28.85
2019-02-22T08:54:53.164Z,27.07
2019-02-22T08:59:58.386Z,21.25
2019-02-22T09:05:03.575Z,21.80
2019-02-22T09:10:10.215Z,19.70
2019-02-22T09:15:15.586Z,17.85
2019-02-22T09:20:20.758Z,25.37
2019-02-22T09:25:26.012Z,30.33
2019-02-22T09:30:31.274Z,27.80
2019-02-22T09:35:36.883Z,27.33
2019-02-22T09:40:42.312Z,24.27
2019-02-22T09:45:47.648Z,26.50
2019-02-22T09:50:53.040Z,19.07
2019-02-22T09:55:58.877Z,18.45
2019-02-22T10:01:04.408Z,17.43
2019-02-22T10:06:12.099Z,19.87
2019-02-22T10:11:17.525Z,19.47
2019-02-22T10:16:22.786Z,11.20
2019-02-22T10:21:28.163Z,13.60
2019-02-22T10:26:33.668Z,15.10
2019-02-22T10:31:38.928Z,12.68
2019-02-22T10:36:45.474Z,13.70
2019-02-22T10:41:50.976Z,15.20
2019-02-22T10:46:56.490Z,18.77
2019-02-22T10:52:01.758Z,21.37
2019-02-22T10:57:06.946Z,21.60
2019-02-22T11:02:12.235Z,22.25
2019-02-22T11:07:17.834Z,19.67
2019-02-22T11:12:23.872Z,15.50
2019-02-22T11:17:30.005Z,14.03
2019-02-22T11:22:35.569Z,16.00
2019-02-22T11:27:43.213Z,25.37
2019-02-22T11:32:49.023Z,26.50
2019-02-22T11:37:54.232Z,29.73
2019-02-22T11:42:59.854Z,29.97
2019-02-22T11:48:09.043Z,25.33
2019-02-22T11:53:12.318Z,23.87
2019-02-22T11:58:17.565Z,17.10
2019-02-22T12:03:24.983Z,19.47
2019-02-22T12:08:30.159Z,15.00
2019-02-22T12:13:36.203Z,14.70
2019-02-22T12:18:41.564Z,15.33
2019-02-22T12:23:46.818Z,15.20
2019-02-22T12:28:52.829Z,14.27
2019-02-22T12:33:58.203Z,13.73
2019-02-22T12:39:06.046Z,14.13
2019-02-22T12:44:11.637Z,14.80
2019-02-22T12:49:17.235Z,21.47
2019-02-22T12:54:22.547Z,18.60
2019-02-22T12:59:28.052Z,18.97
2019-02-22T13:04:33.337Z,17.37
2019-02-22T13:09:38.539Z,17.65
2019-02-22T13:14:43.736Z,16.57
2019-02-22T13:19:48.963Z,13.67
2019-02-22T13:24:54.161Z,12.63
2019-02-22T13:30:00.837Z,14.00
2019-02-22T13:35:07.610Z,16.90
2019-02-22T13:40:13.797Z,15.40
2019-02-22T13:45:26.736Z,14.67
2019-02-22T13:50:25.948Z,14.30
2019-02-22T13:55:31.161Z,13.63
2019-02-22T14:00:36.728Z,14.93
2019-02-22T14:05:42.382Z,15.37
2019-02-22T14:10:48.063Z,17.70
2019-02-22T14:15:53.284Z,16.87
2019-02-22T14:20:58.815Z,21.97
2019-02-22T14:26:04.008Z,17.77
2019-02-22T14:31:09.201Z,18.03
2019-02-22T14:36:14.920Z,23.53
2019-02-22T14:41:20.572Z,25.00
2019-02-22T14:46:26.582Z,23.77
2019-02-22T14:51:31.933Z,28.23
2019-02-22T14:56:37.120Z,23.20
2019-02-22T15:01:42.323Z,21.13
2019-02-22T15:06:48.043Z,18.93
2019-02-22T15:11:53.683Z,20.43
2019-02-22T15:17:22.971Z,23.33
2019-02-22T15:22:28.234Z,29.13
2019-02-22T15:27:36.345Z,30.90
2019-02-22T15:32:41.398Z,31.87
2019-02-22T15:37:46.600Z,31.83
2019-02-22T15:42:51.819Z,30.80
2019-02-22T15:47:58.256Z,28.47
2019-02-22T15:53:03.468Z,27.57
2019-02-22T15:58:08.654Z,32.57
2019-02-22T16:03:14.757Z,32.97
2019-02-22T16:08:20.120Z,35.53
2019-02-22T16:13:25.335Z,37.33
2019-02-22T16:18:30.647Z,38.57
2019-02-22T16:23:35.841Z,41.10
2019-02-22T16:28:42.285Z,39.17
2019-02-22T16:33:49.019Z,39.63
2019-02-22T16:38:55.185Z,42.53
2019-02-22T16:44:01.700Z,42.07
2019-02-22T16:49:07.748Z,41.60
2019-02-22T16:54:12.981Z,38.50
2019-02-22T16:59:18.539Z,37.33
2019-02-22T17:04:28.206Z,38.67
2019-02-22T17:09:33.465Z,35.17
2019-02-22T17:14:39.367Z,37.77
2019-02-22T17:19:45.044Z,36.20
2019-02-22T17:24:51.336Z,33.23
2019-02-22T17:29:56.942Z,38.07
2019-02-22T17:35:02.178Z,36.07
2019-02-22T17:40:10.323Z,37.53
2019-02-22T17:45:16.697Z,36.17
2019-02-22T17:50:21.944Z,40.30
2019-02-22T17:55:27.136Z,44.77
2019-02-22T18:00:32.454Z,44.03
2019-02-22T18:05:37.687Z,41.30
2019-02-22T18:10:42.869Z,42.53
2019-02-22T18:15:48.770Z,43.13
2019-02-22T18:20:53.983Z,37.40
2019-02-22T18:25:59.510Z,42.23
2019-02-22T18:31:04.708Z,47.17
2019-02-22T18:36:09.910Z,52.17
2019-02-22T18:41:15.234Z,48.87
2019-02-22T18:46:20.426Z,45.43
2019-02-22T18:51:25.854Z,41.90
2019-02-22T18:56:31.492Z,44.77
2019-02-22T19:01:37.027Z,40.83
2019-02-22T19:06:42.658Z,35.00
2019-02-22T19:11:48.117Z,29.20
2019-02-22T19:16:53.270Z,33.10
2019-02-22T19:21:58.815Z,27.93
2019-02-22T19:27:04.052Z,25.60
2019-02-22T19:32:09.275Z,22.53
2019-02-22T19:37:14.666Z,22.23
2019-02-22T19:42:21.176Z,23.90
2019-02-22T19:47:27.533Z,23.87
2019-02-22T19:52:33.870Z,23.20
2019-02-22T19:57:39.486Z,24.27
2019-02-22T20:02:44.730Z,23.20
2019-02-22T20:07:49.923Z,21.00
2019-02-22T20:12:55.594Z,24.83
2019-02-22T20:18:01.623Z,23.43
2019-02-22T20:23:07.672Z,23.40
2019-02-22T20:28:13.203Z,23.33
2019-02-22T20:33:18.395Z,22.97
2019-02-22T20:38:23.661Z,22.30
2019-02-22T20:43:29.374Z,23.33
2019-02-22T20:48:35.914Z,23.27
2019-02-22T20:53:41.111Z,25.57
2019-02-22T20:58:46.657Z,21.23
2019-02-22T21:03:52.727Z,24.00
2019-02-22T21:08:57.941Z,23.73
2019-02-22T21:14:03.241Z,23.73
2019-02-22T21:19:09.513Z,23.37
2019-02-22T21:24:15.276Z,24.03
2019-02-22T21:29:20.573Z,23.87
2019-02-22T21:34:25.783Z,26.40
2019-02-22T21:39:31.070Z,24.03
2019-02-22T21:44:36.651Z,23.53
2019-02-22T21:49:42.215Z,25.33
2019-02-22T21:54:47.408Z,26.67
2019-02-22T21:59:52.708Z,25.87
2019-02-22T22:04:57.929Z,29.03
2019-02-22T22:10:03.528Z,27.60
2019-02-22T22:15:10.626Z,26.20
2019-02-22T22:20:16.225Z,23.60
2019-02-22T22:25:21.413Z,26.10
2019-02-22T22:30:26.644Z,28.90
2019-02-22T22:35:32.191Z,24.60
2019-02-22T22:40:37.498Z,21.70
2019-02-22T22:45:43.093Z,24.40
2019-02-22T22:50:48.294Z,24.10
2019-02-22T22:55:53.480Z,22.80
2019-02-22T23:01:15.450Z,23.03
2019-02-22T23:06:21.092Z,23.90
2019-02-22T23:11:26.280Z,24.80
2019-02-22T23:16:31.528Z,30.83
2019-02-22T23:21:36.719Z,28.03
2019-02-22T23:26:41.930Z,29.43
2019-02-22T23:31:47.637Z,30.90
2019-02-22T23:36:53.232Z,29.13
2019-02-22T23:41:58.906Z,30.40
2019-02-22T23:47:04.111Z,30.50
2019-02-22T23:52:10.463Z,28.70
2019-02-22T23:57:15.961Z,29.47
